sensor_id;sensor_type;location;lat;lon;timestamp;pressure;altitude;pressure_sealevel;temperature
70050;BMP180;57391;51.306;22.680;2023-02-26T00:01:44;97958.40;;;3.10
70050;BMP180;57391;51.306;22.680;2023-02-26T00:04:11;97958.60;;;3.10
70050;BMP180;57391;51.306;22.680;2023-02-26T00:06:40;97956.60;;;3.10
70050;BMP180;57391;51.306;22.680;2023-02-26T00:09:18;97962.40;;;3.10
70050;BMP180;57391;51.306;22.680;2023-02-26T00:11:46;97958.40;;;3.10
70050;BMP180;57391;51.306;22.680;2023-02-26T00:14:15;97958.40;;;3.10
70050;BMP180;57391;51.306;22.680;2023-02-26T00:16:49;97964.60;;;3.10
70050;BMP180;57391;51.306;22.680;2023-02-26T00:19:22;97971.40;;;3.10
70050;BMP180;57391;51.306;22.680;2023-02-26T00:21:50;97981.20;;;3.10
70050;BMP180;57391;51.306;22.680;2023-02-26T00:24:17;97981.60;;;3.10
70050;BMP180;57391;51.306;22.680;2023-02-26T00:26:44;97991.00;;;3.10
70050;BMP180;57391;51.306;22.680;2023-02-26T00:29:12;97988.00;;;3.10
70050;BMP180;57391;51.306;22.680;2023-02-26T00:31:40;97989.40;;;3.10
70050;BMP180;57391;51.306;22.680;2023-02-26T00:34:12;97992.60;;;3.10
70050;BMP180;57391;51.306;22.680;2023-02-26T00:40:25;97992.60;;;3.10
70050;BMP180;57391;51.306;22.680;2023-02-26T00:42:55;98003.60;;;3.10
70050;BMP180;57391;51.306;22.680;2023-02-26T00:45:23;98011.20;;;3.10
70050;BMP180;57391;51.306;22.680;2023-02-26T00:50:41;98024.80;;;3.02
70050;BMP180;57391;51.306;22.680;2023-02-26T00:53:27;98026.00;;;3.00
70050;BMP180;57391;51.306;22.680;2023-02-26T00:55:58;98029.20;;;2.90
70050;BMP180;57391;51.306;22.680;2023-02-26T00:58:25;98030.40;;;2.80
70050;BMP180;57391;51.306;22.680;2023-02-26T01:00:52;98036.60;;;2.80
70050;BMP180;57391;51.306;22.680;2023-02-26T01:03:19;98041.60;;;2.80
70050;BMP180;57391;51.306;22.680;2023-02-26T01:05:47;98049.00;;;2.80
70050;BMP180;57391;51.306;22.680;2023-02-26T01:11:26;98062.20;;;2.70
70050;BMP180;57391;51.306;22.680;2023-02-26T01:13:54;98058.00;;;2.60
70050;BMP180;57391;51.306;22.680;2023-02-26T01:16:27;98062.00;;;2.50
70050;BMP180;57391;51.306;22.680;2023-02-26T01:19:04;98061.80;;;2.40
70050;BMP180;57391;51.306;22.680;2023-02-26T01:21:47;98063.00;;;2.40
70050;BMP180;57391;51.306;22.680;2023-02-26T01:24:17;98063.80;;;2.30
70050;BMP180;57391;51.306;22.680;2023-02-26T01:26:48;98066.80;;;2.30
70050;BMP180;57391;51.306;22.680;2023-02-26T01:29:16;98075.20;;;2.30
70050;BMP180;57391;51.306;22.680;2023-02-26T01:31:58;98076.00;;;2.30
70050;BMP180;57391;51.306;22.680;2023-02-26T01:37:28;98086.00;;;2.20
70050;BMP180;57391;51.306;22.680;2023-02-26T01:43:15;98100.00;;;2.20
70050;BMP180;57391;51.306;22.680;2023-02-26T01:45:59;98098.40;;;2.20
70050;BMP180;57391;51.306;22.680;2023-02-26T01:48:47;98107.40;;;2.20
70050;BMP180;57391;51.306;22.680;2023-02-26T01:51:16;98116.60;;;2.14
70050;BMP180;57391;51.306;22.680;2023-02-26T01:53:44;98120.40;;;2.10
70050;BMP180;57391;51.306;22.680;2023-02-26T01:56:20;98123.00;;;2.10
70050;BMP180;57391;51.306;22.680;2023-02-26T01:58:49;98127.00;;;2.10
70050;BMP180;57391;51.306;22.680;2023-02-26T02:01:16;98132.20;;;2.12
70050;BMP180;57391;51.306;22.680;2023-02-26T02:03:44;98131.80;;;2.20
70050;BMP180;57391;51.306;22.680;2023-02-26T02:06:20;98139.40;;;2.20
70050;BMP180;57391;51.306;22.680;2023-02-26T02:08:48;98146.80;;;2.20
70050;BMP180;57391;51.306;22.680;2023-02-26T02:11:16;98148.40;;;2.20
70050;BMP180;57391;51.306;22.680;2023-02-26T02:14:11;98151.40;;;2.20
70050;BMP180;57391;51.306;22.680;2023-02-26T02:17:07;98158.20;;;2.30
70050;BMP180;57391;51.306;22.680;2023-02-26T02:22:19;98174.00;;;2.30
70050;BMP180;57391;51.306;22.680;2023-02-26T02:25:10;98176.60;;;2.30
70050;BMP180;57391;51.306;22.680;2023-02-26T02:31:12;98174.60;;;2.28
70050;BMP180;57391;51.306;22.680;2023-02-26T02:34:15;98183.80;;;2.30
70050;BMP180;57391;51.306;22.680;2023-02-26T02:39:50;98195.20;;;2.30
70050;BMP180;57391;51.306;22.680;2023-02-26T02:42:27;98202.20;;;2.30
70050;BMP180;57391;51.306;22.680;2023-02-26T02:45:04;98206.20;;;2.28
70050;BMP180;57391;51.306;22.680;2023-02-26T02:47:37;98215.00;;;2.26
70050;BMP180;57391;51.306;22.680;2023-02-26T02:50:18;98222.80;;;2.22
70050;BMP180;57391;51.306;22.680;2023-02-26T02:53:20;98227.00;;;2.20
70050;BMP180;57391;51.306;22.680;2023-02-26T02:55:58;98221.00;;;2.20
70050;BMP180;57391;51.306;22.680;2023-02-26T02:58:38;98218.00;;;2.20
70050;BMP180;57391;51.306;22.680;2023-02-26T03:01:13;98220.20;;;2.20
70050;BMP180;57391;51.306;22.680;2023-02-26T03:04:07;98223.60;;;2.20
70050;BMP180;57391;51.306;22.680;2023-02-26T03:06:37;98232.80;;;2.20
70050;BMP180;57391;51.306;22.680;2023-02-26T03:09:08;98235.20;;;2.20
70050;BMP180;57391;51.306;22.680;2023-02-26T03:11:36;98245.60;;;2.20
70050;BMP180;57391;51.306;22.680;2023-02-26T03:14:06;98247.80;;;2.20
70050;BMP180;57391;51.306;22.680;2023-02-26T03:17:08;98251.20;;;2.14
70050;BMP180;57391;51.306;22.680;2023-02-26T03:25:30;98263.00;;;2.10
70050;BMP180;57391;51.306;22.680;2023-02-26T03:28:15;98263.40;;;2.10
70050;BMP180;57391;51.306;22.680;2023-02-26T03:34:05;98272.40;;;2.06
70050;BMP180;57391;51.306;22.680;2023-02-26T03:36:44;98278.80;;;2.00
70050;BMP180;57391;51.306;22.680;2023-02-26T03:39:36;98281.60;;;2.00
70050;BMP180;57391;51.306;22.680;2023-02-26T03:42:20;98285.20;;;2.00
70050;BMP180;57391;51.306;22.680;2023-02-26T03:45:24;98287.00;;;2.00
70050;BMP180;57391;51.306;22.680;2023-02-26T03:47:54;98292.80;;;2.00
70050;BMP180;57391;51.306;22.680;2023-02-26T03:50:36;98295.20;;;1.96
70050;BMP180;57391;51.306;22.680;2023-02-26T03:53:35;98304.80;;;1.90
70050;BMP180;57391;51.306;22.680;2023-02-26T03:56:36;98301.60;;;1.90
70050;BMP180;57391;51.306;22.680;2023-02-26T03:59:24;98314.60;;;1.90
70050;BMP180;57391;51.306;22.680;2023-02-26T04:04:58;98327.00;;;1.80
70050;BMP180;57391;51.306;22.680;2023-02-26T04:07:28;98327.20;;;1.80
70050;BMP180;57391;51.306;22.680;2023-02-26T04:09:56;98331.00;;;1.80
70050;BMP180;57391;51.306;22.680;2023-02-26T04:12:27;98333.80;;;1.80
70050;BMP180;57391;51.306;22.680;2023-02-26T04:14:56;98340.80;;;1.80
70050;BMP180;57391;51.306;22.680;2023-02-26T04:17:24;98336.40;;;1.80
70050;BMP180;57391;51.306;22.680;2023-02-26T04:19:51;98344.20;;;1.80
70050;BMP180;57391;51.306;22.680;2023-02-26T04:22:18;98350.60;;;1.80
70050;BMP180;57391;51.306;22.680;2023-02-26T04:24:45;98357.60;;;1.76
70050;BMP180;57391;51.306;22.680;2023-02-26T04:27:13;98369.40;;;1.70
70050;BMP180;57391;51.306;22.680;2023-02-26T04:29:41;98373.20;;;1.70
70050;BMP180;57391;51.306;22.680;2023-02-26T04:32:08;98368.60;;;1.70
70050;BMP180;57391;51.306;22.680;2023-02-26T04:34:35;98373.40;;;1.70
70050;BMP180;57391;51.306;22.680;2023-02-26T04:37:02;98376.00;;;1.70
70050;BMP180;57391;51.306;22.680;2023-02-26T04:39:29;98389.20;;;1.70
70050;BMP180;57391;51.306;22.680;2023-02-26T04:41:56;98388.60;;;1.70
70050;BMP180;57391;51.306;22.680;2023-02-26T04:44:23;98394.80;;;1.70
70050;BMP180;57391;51.306;22.680;2023-02-26T04:46:50;98393.20;;;1.60
70050;BMP180;57391;51.306;22.680;2023-02-26T04:49:17;98398.80;;;1.60
70050;BMP180;57391;51.306;22.680;2023-02-26T04:51:45;98405.60;;;1.60
70050;BMP180;57391;51.306;22.680;2023-02-26T04:54:13;98405.40;;;1.60
70050;BMP180;57391;51.306;22.680;2023-02-26T04:56:41;98406.80;;;1.60
70050;BMP180;57391;51.306;22.680;2023-02-26T04:59:08;98410.20;;;1.60
70050;BMP180;57391;51.306;22.680;2023-02-26T05:01:35;98412.20;;;1.54
70050;BMP180;57391;51.306;22.680;2023-02-26T05:04:04;98420.20;;;1.50
70050;BMP180;57391;51.306;22.680;2023-02-26T05:06:31;98431.60;;;1.50
70050;BMP180;57391;51.306;22.680;2023-02-26T05:08:58;98441.00;;;1.50
70050;BMP180;57391;51.306;22.680;2023-02-26T05:11:26;98447.80;;;1.50
70050;BMP180;57391;51.306;22.680;2023-02-26T05:13:53;98456.40;;;1.52
70050;BMP180;57391;51.306;22.680;2023-02-26T05:16:20;98463.60;;;1.60
70050;BMP180;57391;51.306;22.680;2023-02-26T05:18:47;98468.00;;;1.60
70050;BMP180;57391;51.306;22.680;2023-02-26T05:21:15;98469.00;;;1.60
70050;BMP180;57391;51.306;22.680;2023-02-26T05:23:42;98468.00;;;1.60
70050;BMP180;57391;51.306;22.680;2023-02-26T05:26:08;98465.60;;;1.60
70050;BMP180;57391;51.306;22.680;2023-02-26T05:28:36;98473.20;;;1.56
70050;BMP180;57391;51.306;22.680;2023-02-26T05:31:04;98482.00;;;1.56
70050;BMP180;57391;51.306;22.680;2023-02-26T05:33:32;98493.60;;;1.52
70050;BMP180;57391;51.306;22.680;2023-02-26T05:35:59;98493.40;;;1.50
70050;BMP180;57391;51.306;22.680;2023-02-26T05:38:26;98489.60;;;1.50
70050;BMP180;57391;51.306;22.680;2023-02-26T05:40:57;98479.60;;;1.50
70050;BMP180;57391;51.306;22.680;2023-02-26T05:43:26;98478.40;;;1.40
70050;BMP180;57391;51.306;22.680;2023-02-26T05:45:54;98480.40;;;1.40
70050;BMP180;57391;51.306;22.680;2023-02-26T05:48:23;98491.40;;;1.30
70050;BMP180;57391;51.306;22.680;2023-02-26T05:50:50;98499.00;;;1.30
70050;BMP180;57391;51.306;22.680;2023-02-26T05:53:18;98505.60;;;1.30
70050;BMP180;57391;51.306;22.680;2023-02-26T05:55:45;98514.40;;;1.24
70050;BMP180;57391;51.306;22.680;2023-02-26T05:58:12;98525.80;;;1.20
70050;BMP180;57391;51.306;22.680;2023-02-26T06:00:39;98527.00;;;1.20
70050;BMP180;57391;51.306;22.680;2023-02-26T06:03:06;98538.40;;;1.20
70050;BMP180;57391;51.306;22.680;2023-02-26T06:05:33;98547.20;;;1.20
70050;BMP180;57391;51.306;22.680;2023-02-26T06:08:03;98552.40;;;1.20
70050;BMP180;57391;51.306;22.680;2023-02-26T06:10:31;98554.80;;;1.18
70050;BMP180;57391;51.306;22.680;2023-02-26T06:12:58;98567.20;;;1.18
70050;BMP180;57391;51.306;22.680;2023-02-26T06:15:25;98574.00;;;1.20
70050;BMP180;57391;51.306;22.680;2023-02-26T06:17:52;98580.00;;;1.20
70050;BMP180;57391;51.306;22.680;2023-02-26T06:20:20;98592.00;;;1.20
70050;BMP180;57391;51.306;22.680;2023-02-26T06:22:47;98600.00;;;1.20
70050;BMP180;57391;51.306;22.680;2023-02-26T06:25:13;98605.00;;;1.20
70050;BMP180;57391;51.306;22.680;2023-02-26T06:27:41;98609.00;;;1.20
70050;BMP180;57391;51.306;22.680;2023-02-26T06:30:09;98607.60;;;1.28
70050;BMP180;57391;51.306;22.680;2023-02-26T06:32:36;98612.20;;;1.30
70050;BMP180;57391;51.306;22.680;2023-02-26T06:35:04;98616.40;;;1.30
70050;BMP180;57391;51.306;22.680;2023-02-26T06:37:32;98615.20;;;1.30
70050;BMP180;57391;51.306;22.680;2023-02-26T06:39:59;98621.20;;;1.30
70050;BMP180;57391;51.306;22.680;2023-02-26T06:42:26;98627.40;;;1.30
70050;BMP180;57391;51.306;22.680;2023-02-26T06:44:53;98637.00;;;1.32
70050;BMP180;57391;51.306;22.680;2023-02-26T06:47:20;98639.00;;;1.34
70050;BMP180;57391;51.306;22.680;2023-02-26T06:49:48;98646.80;;;1.30
70050;BMP180;57391;51.306;22.680;2023-02-26T06:52:15;98640.80;;;1.30
70050;BMP180;57391;51.306;22.680;2023-02-26T06:54:42;98648.60;;;1.30
70050;BMP180;57391;51.306;22.680;2023-02-26T06:57:08;98652.40;;;1.30
70050;BMP180;57391;51.306;22.680;2023-02-26T06:59:35;98658.40;;;1.30
70050;BMP180;57391;51.306;22.680;2023-02-26T07:02:02;98656.60;;;1.28
70050;BMP180;57391;51.306;22.680;2023-02-26T07:04:30;98666.00;;;1.24
70050;BMP180;57391;51.306;22.680;2023-02-26T07:06:56;98673.00;;;1.20
70050;BMP180;57391;51.306;22.680;2023-02-26T07:09:23;98679.80;;;1.24
70050;BMP180;57391;51.306;22.680;2023-02-26T07:11:50;98681.80;;;1.26
70050;BMP180;57391;51.306;22.680;2023-02-26T07:14:17;98687.60;;;1.30
70050;BMP180;57391;51.306;22.680;2023-02-26T07:16:44;98684.80;;;1.28
70050;BMP180;57391;51.306;22.680;2023-02-26T07:19:11;98689.00;;;1.20
70050;BMP180;57391;51.306;22.680;2023-02-26T07:21:39;98692.20;;;1.24
70050;BMP180;57391;51.306;22.680;2023-02-26T07:24:06;98693.20;;;1.26
70050;BMP180;57391;51.306;22.680;2023-02-26T07:26:34;98693.60;;;1.26
70050;BMP180;57391;51.306;22.680;2023-02-26T07:29:01;98695.00;;;1.26
70050;BMP180;57391;51.306;22.680;2023-02-26T07:31:28;98699.00;;;1.24
70050;BMP180;57391;51.306;22.680;2023-02-26T07:33:55;98703.00;;;1.30
70050;BMP180;57391;51.306;22.680;2023-02-26T07:36:22;98717.20;;;1.26
70050;BMP180;57391;51.306;22.680;2023-02-26T07:38:49;98723.60;;;1.20
70050;BMP180;57391;51.306;22.680;2023-02-26T07:41:16;98725.80;;;1.20
70050;BMP180;57391;51.306;22.680;2023-02-26T07:43:43;98732.20;;;1.22
70050;BMP180;57391;51.306;22.680;2023-02-26T07:46:12;98729.60;;;1.20
70050;BMP180;57391;51.306;22.680;2023-02-26T07:48:39;98738.40;;;1.20
70050;BMP180;57391;51.306;22.680;2023-02-26T07:51:06;98742.60;;;1.20
70050;BMP180;57391;51.306;22.680;2023-02-26T07:53:34;98753.60;;;1.20
70050;BMP180;57391;51.306;22.680;2023-02-26T07:56:00;98759.20;;;1.20
70050;BMP180;57391;51.306;22.680;2023-02-26T07:58:28;98764.40;;;1.20
70050;BMP180;57391;51.306;22.680;2023-02-26T08:00:55;98762.20;;;1.20
70050;BMP180;57391;51.306;22.680;2023-02-26T08:03:23;98770.80;;;1.10
70050;BMP180;57391;51.306;22.680;2023-02-26T08:05:53;98773.60;;;1.10
70050;BMP180;57391;51.306;22.680;2023-02-26T08:08:21;98775.60;;;1.10
70050;BMP180;57391;51.306;22.680;2023-02-26T08:10:47;98776.40;;;1.00
70050;BMP180;57391;51.306;22.680;2023-02-26T08:13:14;98782.20;;;1.00
70050;BMP180;57391;51.306;22.680;2023-02-26T08:15:41;98791.00;;;1.00
70050;BMP180;57391;51.306;22.680;2023-02-26T08:18:10;98788.40;;;1.00
70050;BMP180;57391;51.306;22.680;2023-02-26T08:20:37;98789.20;;;1.00
70050;BMP180;57391;51.306;22.680;2023-02-26T08:23:04;98785.60;;;1.06
70050;BMP180;57391;51.306;22.680;2023-02-26T08:25:32;98787.40;;;1.04
70050;BMP180;57391;51.306;22.680;2023-02-26T08:27:59;98801.60;;;1.06
70050;BMP180;57391;51.306;22.680;2023-02-26T08:30:26;98806.20;;;1.02
70050;BMP180;57391;51.306;22.680;2023-02-26T08:32:54;98807.80;;;1.00
70050;BMP180;57391;51.306;22.680;2023-02-26T08:35:23;98815.20;;;1.10
70050;BMP180;57391;51.306;22.680;2023-02-26T08:37:50;98818.00;;;1.10
70050;BMP180;57391;51.306;22.680;2023-02-26T08:40:18;98819.40;;;1.12
70050;BMP180;57391;51.306;22.680;2023-02-26T08:42:45;98821.20;;;1.20
70050;BMP180;57391;51.306;22.680;2023-02-26T08:45:13;98821.40;;;1.20
70050;BMP180;57391;51.306;22.680;2023-02-26T08:47:40;98824.20;;;1.20
70050;BMP180;57391;51.306;22.680;2023-02-26T08:50:10;98829.00;;;1.20
70050;BMP180;57391;51.306;22.680;2023-02-26T08:52:37;98836.80;;;1.26
70050;BMP180;57391;51.306;22.680;2023-02-26T08:55:05;98846.40;;;1.30
70050;BMP180;57391;51.306;22.680;2023-02-26T08:57:32;98854.60;;;1.30
70050;BMP180;57391;51.306;22.680;2023-02-26T08:59:59;98862.60;;;1.20
70050;BMP180;57391;51.306;22.680;2023-02-26T09:02:26;98869.40;;;1.10
70050;BMP180;57391;51.306;22.680;2023-02-26T09:04:54;98868.00;;;1.00
70050;BMP180;57391;51.306;22.680;2023-02-26T09:07:21;98878.20;;;1.00
70050;BMP180;57391;51.306;22.680;2023-02-26T09:09:47;98880.20;;;0.90
70050;BMP180;57391;51.306;22.680;2023-02-26T09:12:15;98891.80;;;0.80
70050;BMP180;57391;51.306;22.680;2023-02-26T09:14:42;98896.00;;;0.74
70050;BMP180;57391;51.306;22.680;2023-02-26T09:17:09;98899.00;;;0.70
70050;BMP180;57391;51.306;22.680;2023-02-26T09:19:37;98899.20;;;0.70
70050;BMP180;57391;51.306;22.680;2023-02-26T09:22:04;98901.80;;;0.70
70050;BMP180;57391;51.306;22.680;2023-02-26T09:24:31;98901.80;;;0.70
70050;BMP180;57391;51.306;22.680;2023-02-26T09:26:58;98905.20;;;0.70
70050;BMP180;57391;51.306;22.680;2023-02-26T09:29:26;98906.80;;;0.70
70050;BMP180;57391;51.306;22.680;2023-02-26T09:31:54;98911.40;;;0.70
70050;BMP180;57391;51.306;22.680;2023-02-26T09:34:21;98917.00;;;0.70
70050;BMP180;57391;51.306;22.680;2023-02-26T09:36:48;98920.00;;;0.70
70050;BMP180;57391;51.306;22.680;2023-02-26T09:39:15;98925.00;;;0.80
70050;BMP180;57391;51.306;22.680;2023-02-26T09:41:49;98932.60;;;0.80
70050;BMP180;57391;51.306;22.680;2023-02-26T09:44:33;98935.60;;;0.82
70050;BMP180;57391;51.306;22.680;2023-02-26T09:47:44;98940.00;;;0.90
70050;BMP180;57391;51.306;22.680;2023-02-26T09:55:51;98961.00;;;0.90
70050;BMP180;57391;51.306;22.680;2023-02-26T09:58:37;98961.00;;;0.90
70050;BMP180;57391;51.306;22.680;2023-02-26T10:06:31;98983.00;;;1.00
70050;BMP180;57391;51.306;22.680;2023-02-26T10:12:11;99000.80;;;1.00
70050;BMP180;57391;51.306;22.680;2023-02-26T10:15:55;98998.20;;;1.00
70050;BMP180;57391;51.306;22.680;2023-02-26T10:18:03;98998.80;;;1.00
70050;BMP180;57391;51.306;22.680;2023-02-26T10:20:38;99005.20;;;1.00
70050;BMP180;57391;51.306;22.680;2023-02-26T10:25:49;99009.00;;;1.10
70050;BMP180;57391;51.306;22.680;2023-02-26T10:29:01;99018.60;;;1.10
70050;BMP180;57391;51.306;22.680;2023-02-26T10:34:07;99028.80;;;1.10
70050;BMP180;57391;51.306;22.680;2023-02-26T10:40:09;99049.20;;;1.18
70050;BMP180;57391;51.306;22.680;2023-02-26T10:42:57;99056.20;;;1.20
70050;BMP180;57391;51.306;22.680;2023-02-26T10:48:45;99064.80;;;1.30
70050;BMP180;57391;51.306;22.680;2023-02-26T10:51:21;99066.00;;;1.30
70050;BMP180;57391;51.306;22.680;2023-02-26T10:54:20;99070.20;;;1.30
70050;BMP180;57391;51.306;22.680;2023-02-26T10:56:49;99072.60;;;1.32
70050;BMP180;57391;51.306;22.680;2023-02-26T10:59:16;99072.80;;;1.38
70050;BMP180;57391;51.306;22.680;2023-02-26T11:01:44;99076.40;;;1.40
70050;BMP180;57391;51.306;22.680;2023-02-26T11:04:17;99083.20;;;1.40
70050;BMP180;57391;51.306;22.680;2023-02-26T11:06:54;99084.60;;;1.40
70050;BMP180;57391;51.306;22.680;2023-02-26T11:09:35;99084.00;;;1.40
70050;BMP180;57391;51.306;22.680;2023-02-26T11:12:14;99090.20;;;1.40
70050;BMP180;57391;51.306;22.680;2023-02-26T11:14:43;99098.20;;;1.40
70050;BMP180;57391;51.306;22.680;2023-02-26T11:17:17;99104.20;;;1.40
70050;BMP180;57391;51.306;22.680;2023-02-26T11:22:26;99111.20;;;1.40
70050;BMP180;57391;51.306;22.680;2023-02-26T11:24:56;99123.60;;;1.40
70050;BMP180;57391;51.306;22.680;2023-02-26T11:27:30;99130.40;;;1.40
70050;BMP180;57391;51.306;22.680;2023-02-26T11:30:06;99129.80;;;1.42
70050;BMP180;57391;51.306;22.680;2023-02-26T11:32:40;99137.60;;;1.42
70050;BMP180;57391;51.306;22.680;2023-02-26T11:35:14;99134.60;;;1.40
70050;BMP180;57391;51.306;22.680;2023-02-26T11:37:56;99144.80;;;1.44
70050;BMP180;57391;51.306;22.680;2023-02-26T11:40:39;99149.80;;;1.40
70050;BMP180;57391;51.306;22.680;2023-02-26T11:43:16;99153.20;;;1.40
70050;BMP180;57391;51.306;22.680;2023-02-26T11:45:52;99155.80;;;1.40
70050;BMP180;57391;51.306;22.680;2023-02-26T11:48:30;99157.20;;;1.40
70050;BMP180;57391;51.306;22.680;2023-02-26T11:51:04;99161.20;;;1.40
70050;BMP180;57391;51.306;22.680;2023-02-26T11:53:52;99163.20;;;1.40
70050;BMP180;57391;51.306;22.680;2023-02-26T11:56:41;99167.80;;;1.50
70050;BMP180;57391;51.306;22.680;2023-02-26T11:59:23;99172.80;;;1.50
70050;BMP180;57391;51.306;22.680;2023-02-26T12:01:52;99178.40;;;1.50
70050;BMP180;57391;51.306;22.680;2023-02-26T12:04:25;99180.60;;;1.50
70050;BMP180;57391;51.306;22.680;2023-02-26T12:06:54;99185.00;;;1.50
70050;BMP180;57391;51.306;22.680;2023-02-26T12:09:24;99188.00;;;1.50
70050;BMP180;57391;51.306;22.680;2023-02-26T12:14:52;99199.00;;;1.54
70050;BMP180;57391;51.306;22.680;2023-02-26T12:17:34;99197.00;;;1.60
70050;BMP180;57391;51.306;22.680;2023-02-26T12:26:27;99206.40;;;1.60
70050;BMP180;57391;51.306;22.680;2023-02-26T12:36:00;99206.00;;;1.60
70050;BMP180;57391;51.306;22.680;2023-02-26T12:38:07;99205.00;;;1.60
70050;BMP180;57391;51.306;22.680;2023-02-26T12:43:50;99220.40;;;1.60
70050;BMP180;57391;51.306;22.680;2023-02-26T12:46:52;99217.60;;;1.60
70050;BMP180;57391;51.306;22.680;2023-02-26T12:49:54;99227.00;;;1.60
70050;BMP180;57391;51.306;22.680;2023-02-26T13:16:46;99270.60;;;1.50
70050;BMP180;57391;51.306;22.680;2023-02-26T13:22:35;99279.20;;;1.50
70050;BMP180;57391;51.306;22.680;2023-02-26T13:31:20;99288.40;;;1.60
70050;BMP180;57391;51.306;22.680;2023-02-26T13:33:51;99284.40;;;1.60
70050;BMP180;57391;51.306;22.680;2023-02-26T13:36:23;99283.40;;;1.60
70050;BMP180;57391;51.306;22.680;2023-02-26T13:45:15;99293.00;;;1.60
70050;BMP180;57391;51.306;22.680;2023-02-26T13:48:15;99288.40;;;1.60
70050;BMP180;57391;51.306;22.680;2023-02-26T13:51:33;99288.60;;;1.60
70050;BMP180;57391;51.306;22.680;2023-02-26T13:57:10;99300.40;;;1.70
70050;BMP180;57391;51.306;22.680;2023-02-26T14:00:21;99305.60;;;1.70
70050;BMP180;57391;51.306;22.680;2023-02-26T14:03:39;99307.20;;;1.70
70050;BMP180;57391;51.306;22.680;2023-02-26T14:08:27;99306.60;;;1.60
70050;BMP180;57391;51.306;22.680;2023-02-26T14:14:17;99317.60;;;1.50
70050;BMP180;57391;51.306;22.680;2023-02-26T14:20:17;99331.60;;;1.50
70050;BMP180;57391;51.306;22.680;2023-02-26T14:22:50;99333.00;;;1.40
70050;BMP180;57391;51.306;22.680;2023-02-26T14:25:29;99341.00;;;1.40
70050;BMP180;57391;51.306;22.680;2023-02-26T14:34:07;99361.60;;;1.30
70050;BMP180;57391;51.306;22.680;2023-02-26T14:37:04;99363.20;;;1.30
70050;BMP180;57391;51.306;22.680;2023-02-26T14:39:42;99361.60;;;1.30
70050;BMP180;57391;51.306;22.680;2023-02-26T14:44:50;99373.00;;;1.20
70050;BMP180;57391;51.306;22.680;2023-02-26T14:47:20;99379.20;;;1.20
70050;BMP180;57391;51.306;22.680;2023-02-26T14:49:48;99383.60;;;1.20
70050;BMP180;57391;51.306;22.680;2023-02-26T15:00:52;99407.20;;;1.20
70050;BMP180;57391;51.306;22.680;2023-02-26T15:03:54;99407.00;;;1.20
70050;BMP180;57391;51.306;22.680;2023-02-26T15:06:59;99409.40;;;1.20
70050;BMP180;57391;51.306;22.680;2023-02-26T15:18:53;99419.80;;;1.10
70050;BMP180;57391;51.306;22.680;2023-02-26T15:21:39;99427.00;;;1.00
70050;BMP180;57391;51.306;22.680;2023-02-26T15:24:11;99432.80;;;1.00
70050;BMP180;57391;51.306;22.680;2023-02-26T15:26:57;99439.00;;;1.00
70050;BMP180;57391;51.306;22.680;2023-02-26T15:29:31;99444.80;;;0.90
70050;BMP180;57391;51.306;22.680;2023-02-26T15:32:28;99452.80;;;0.90
70050;BMP180;57391;51.306;22.680;2023-02-26T15:35:13;99454.20;;;0.90
70050;BMP180;57391;51.306;22.680;2023-02-26T15:37:58;99458.20;;;0.90
70050;BMP180;57391;51.306;22.680;2023-02-26T15:40:35;99468.20;;;0.90
70050;BMP180;57391;51.306;22.680;2023-02-26T15:43:06;99473.40;;;0.90
70050;BMP180;57391;51.306;22.680;2023-02-26T15:45:45;99480.80;;;0.90
70050;BMP180;57391;51.306;22.680;2023-02-26T15:48:19;99478.60;;;0.90
70050;BMP180;57391;51.306;22.680;2023-02-26T15:50:53;99484.40;;;0.90
70050;BMP180;57391;51.306;22.680;2023-02-26T15:56:14;99490.00;;;0.90
70050;BMP180;57391;51.306;22.680;2023-02-26T15:58:51;99491.40;;;0.90
70050;BMP180;57391;51.306;22.680;2023-02-26T16:01:22;99489.40;;;0.90
70050;BMP180;57391;51.306;22.680;2023-02-26T16:03:55;99491.60;;;0.80
70050;BMP180;57391;51.306;22.680;2023-02-26T16:06:29;99500.80;;;0.80
70050;BMP180;57391;51.306;22.680;2023-02-26T16:08:58;99500.80;;;0.70
70050;BMP180;57391;51.306;22.680;2023-02-26T16:11:37;99507.00;;;0.68
70050;BMP180;57391;51.306;22.680;2023-02-26T16:14:07;99501.80;;;0.60
70050;BMP180;57391;51.306;22.680;2023-02-26T16:16:49;99508.40;;;0.50
70050;BMP180;57391;51.306;22.680;2023-02-26T16:19:32;99516.80;;;0.50
70050;BMP180;57391;51.306;22.680;2023-02-26T16:24:54;99519.80;;;0.48
70050;BMP180;57391;51.306;22.680;2023-02-26T16:27:27;99520.60;;;0.46
70050;BMP180;57391;51.306;22.680;2023-02-26T16:30:00;99523.60;;;0.42
70050;BMP180;57391;51.306;22.680;2023-02-26T16:32:32;99534.00;;;0.42
70050;BMP180;57391;51.306;22.680;2023-02-26T16:35:21;99536.00;;;0.44
70050;BMP180;57391;51.306;22.680;2023-02-26T16:37:53;99536.00;;;0.50
70050;BMP180;57391;51.306;22.680;2023-02-26T16:40:35;99541.20;;;0.50
70050;BMP180;57391;51.306;22.680;2023-02-26T16:46:25;99544.60;;;0.50
70050;BMP180;57391;51.306;22.680;2023-02-26T16:49:01;99547.80;;;0.46
70050;BMP180;57391;51.306;22.680;2023-02-26T16:51:35;99549.60;;;0.40
70050;BMP180;57391;51.306;22.680;2023-02-26T16:54:35;99550.60;;;0.40
70050;BMP180;57391;51.306;22.680;2023-02-26T16:57:18;99557.80;;;0.40
70050;BMP180;57391;51.306;22.680;2023-02-26T16:59:52;99568.60;;;0.40
70050;BMP180;57391;51.306;22.680;2023-02-26T17:02:26;99576.00;;;0.40
70050;BMP180;57391;51.306;22.680;2023-02-26T17:05:13;99577.40;;;0.40
70050;BMP180;57391;51.306;22.680;2023-02-26T17:08:05;99579.60;;;0.40
70050;BMP180;57391;51.306;22.680;2023-02-26T17:10:43;99580.60;;;0.40
70050;BMP180;57391;51.306;22.680;2023-02-26T17:13:26;99582.00;;;0.40
70050;BMP180;57391;51.306;22.680;2023-02-26T17:16:00;99588.20;;;0.40
70050;BMP180;57391;51.306;22.680;2023-02-26T17:18:28;99594.80;;;0.48
70050;BMP180;57391;51.306;22.680;2023-02-26T17:20:59;99601.20;;;0.50
70050;BMP180;57391;51.306;22.680;2023-02-26T17:23:35;99602.60;;;0.50
70050;BMP180;57391;51.306;22.680;2023-02-26T17:26:04;99605.20;;;0.50
70050;BMP180;57391;51.306;22.680;2023-02-26T17:28:36;99613.20;;;0.50
70050;BMP180;57391;51.306;22.680;2023-02-26T17:31:07;99618.00;;;0.50
70050;BMP180;57391;51.306;22.680;2023-02-26T17:33:37;99621.80;;;0.50
70050;BMP180;57391;51.306;22.680;2023-02-26T17:36:06;99631.00;;;0.52
70050;BMP180;57391;51.306;22.680;2023-02-26T17:38:33;99629.40;;;0.56